Time;durP1;ratioP1;P1;durP2;ratioP2;P2;SDS_P1;SDS_P2;PMS_P1;PMS_P2;Temp;Humidity;BMP_temperature;BMP_pressure;BME280_temperature;BME280_humidity;BME280_pressure;Samples;Min_cycle;Max_cycle;Signal;HPM_P1;HPM_P2
2022/11/24 00:01:32;;;;;;;12.43;1.90;;;9.00;99.90;;;;;;5041081;28;20265;-73
2022/11/24 00:04:04;;;;;;;9.85;1.92;;;9.10;99.90;;;;;;5057212;28;20040;-73
2022/11/24 00:06:32;;;;;;;13.50;2.33;;;9.10;99.90;;;;;;5058394;28;20090;-71
2022/11/24 00:08:59;;;;;;;14.95;2.30;;;9.10;99.90;;;;;;5058274;28;20340;-73
2022/11/24 00:11:26;;;;;;;9.55;2.10;;;9.10;99.90;;;;;;5057429;28;20056;-73
2022/11/24 00:13:53;;;;;;;11.27;2.20;;;9.10;99.90;;;;;;5058159;28;20021;-70
2022/11/24 00:16:22;;;;;;;15.63;2.38;;;9.10;99.90;;;;;;5057481;28;20036;-73
2022/11/24 00:18:49;;;;;;;14.10;2.20;;;9.20;99.90;;;;;;5058120;28;20328;-72
2022/11/24 00:21:16;;;;;;;16.45;2.55;;;9.20;99.90;;;;;;5057966;28;20036;-74
2022/11/24 00:23:43;;;;;;;21.00;2.40;;;9.20;99.90;;;;;;5057406;28;20063;-73
2022/11/24 00:26:10;;;;;;;14.95;2.05;;;9.20;99.90;;;;;;5058007;28;20040;-74
2022/11/24 00:28:37;;;;;;;11.55;2.25;;;9.20;99.90;;;;;;5057146;28;20305;-69
2022/11/24 00:31:05;;;;;;;15.15;2.75;;;9.20;99.90;;;;;;5057268;28;20044;-73
2022/11/24 00:33:31;;;;;;;11.32;2.28;;;9.20;99.90;;;;;;5057238;28;20410;-72
2022/11/24 00:35:58;;;;;;;13.63;2.50;;;9.20;99.90;;;;;;5041119;28;20055;-73
2022/11/24 00:38:24;;;;;;;15.98;2.58;;;9.20;99.90;;;;;;5040352;28;20036;-73
2022/11/24 00:40:51;;;;;;;11.63;2.20;;;9.20;99.90;;;;;;5040477;28;20033;-73
2022/11/24 00:43:17;;;;;;;10.85;2.50;;;9.10;99.90;;;;;;5056758;28;20041;-74
2022/11/24 00:45:43;;;;;;;13.50;2.10;;;9.10;99.90;;;;;;5040253;28;20125;-74
2022/11/24 00:48:09;;;;;;;14.65;2.72;;;9.10;99.90;;;;;;5056792;28;20099;-72
2022/11/24 00:50:36;;;;;;;14.93;2.28;;;9.10;99.90;;;;;;5056502;28;20044;-73
2022/11/24 00:53:01;;;;;;;14.48;2.58;;;9.10;99.90;;;;;;5056713;28;20029;-73
2022/11/24 00:55:27;;;;;;;15.07;2.50;;;9.20;99.90;;;;;;5057094;28;20303;-74
2022/11/24 00:57:53;;;;;;;16.00;2.70;;;9.20;99.90;;;;;;5056703;28;20032;-71
2022/11/24 01:00:19;;;;;;;16.83;3.13;;;9.20;99.90;;;;;;5057343;28;20124;-74
2022/11/24 01:02:45;;;;;;;12.52;2.45;;;9.20;99.90;;;;;;5057414;28;20029;-72
2022/11/24 01:05:10;;;;;;;18.73;3.40;;;9.10;99.90;;;;;;5039817;28;20064;-71
2022/11/24 01:07:36;;;;;;;15.52;3.00;;;9.20;99.90;;;;;;5039882;28;20053;-72
2022/11/24 01:10:03;;;;;;;9.85;1.90;;;9.10;99.90;;;;;;5039874;28;20182;-71
2022/11/24 01:12:28;;;;;;;12.70;2.45;;;9.20;99.90;;;;;;5056362;28;20041;-74
2022/11/24 01:14:54;;;;;;;17.70;2.78;;;9.20;99.90;;;;;;5039792;28;20048;-73
2022/11/24 01:17:20;;;;;;;18.25;2.72;;;9.20;99.90;;;;;;5039853;28;20033;-74
2022/11/24 01:19:47;;;;;;;14.93;2.40;;;9.20;99.90;;;;;;5056997;28;20178;-75
2022/11/24 01:22:14;;;;;;;15.98;2.83;;;9.30;99.90;;;;;;5056225;28;20032;-74
2022/11/24 01:24:40;;;;;;;15.38;2.78;;;9.30;99.90;;;;;;5023936;28;20401;-70
2022/11/24 01:27:06;;;;;;;16.17;3.08;;;9.30;99.90;;;;;;5056136;28;20104;-74
2022/11/24 01:29:32;;;;;;;14.93;2.97;;;9.40;99.90;;;;;;5056925;28;20166;-74
2022/11/24 01:31:58;;;;;;;17.20;2.97;;;9.40;99.90;;;;;;5039704;28;20156;-74
2022/11/24 01:34:24;;;;;;;16.23;2.75;;;9.40;99.90;;;;;;5056108;28;20439;-73
2022/11/24 01:36:50;;;;;;;18.42;3.03;;;9.40;99.90;;;;;;5039463;28;20427;-74
2022/11/24 01:39:16;;;;;;;16.77;3.25;;;9.40;99.90;;;;;;5056895;28;20040;-74
2022/11/24 01:41:42;;;;;;;18.98;2.92;;;9.40;99.90;;;;;;5057260;28;20037;-73
2022/11/24 01:44:27;;;;;;;14.65;3.15;;;9.40;99.90;;;;;;5043933;28;20045;-74
2022/11/24 01:47:04;;;;;;;20.33;2.90;;;9.40;99.90;;;;;;5060605;28;20410;-74
2022/11/24 01:49:42;;;;;;;22.60;3.28;;;9.40;99.90;;;;;;5060344;28;20029;-70
2022/11/24 01:52:16;;;;;;;19.50;3.22;;;9.40;99.90;;;;;;5043497;28;20052;-72
2022/11/24 01:54:47;;;;;;;17.20;3.05;;;9.50;99.90;;;;;;5060041;28;20044;-74
2022/11/24 01:57:23;;;;;;;20.20;3.60;;;9.50;99.90;;;;;;5060761;28;20025;-72
2022/11/24 01:59:54;;;;;;;18.75;3.15;;;9.50;99.90;;;;;;5060984;28;20025;-71
2022/11/24 02:02:27;;;;;;;19.45;2.83;;;9.40;99.90;;;;;;5059844;28;20055;-71
2022/11/24 02:04:54;;;;;;;16.95;3.50;;;9.50;99.90;;;;;;5060466;28;20045;-72
2022/11/24 02:07:20;;;;;;;18.95;3.28;;;9.50;99.90;;;;;;5059865;28;20037;-71
2022/11/24 02:09:58;;;;;;;19.25;3.13;;;9.50;99.90;;;;;;5060599;28;20355;-73
2022/11/24 02:12:26;;;;;;;16.75;2.95;;;9.60;99.90;;;;;;5043183;28;20028;-72
2022/11/24 02:14:53;;;;;;;20.65;3.17;;;9.60;99.90;;;;;;5059983;28;20056;-75
2022/11/24 02:17:19;;;;;;;21.45;3.13;;;9.70;99.90;;;;;;5060432;28;20119;-71
2022/11/24 02:19:59;;;;;;;21.02;3.47;;;9.70;99.90;;;;;;5059527;28;20346;-72
2022/11/24 02:22:58;;;;;;;23.17;3.88;;;9.70;99.90;;;;;;5060160;28;20029;-73
2022/11/24 02:25:41;;;;;;;21.05;3.80;;;9.70;99.90;;;;;;5060258;28;20033;-73
2022/11/24 02:28:12;;;;;;;22.73;3.78;;;9.70;99.90;;;;;;5060152;28;20024;-73
2022/11/24 02:30:38;;;;;;;15.85;2.78;;;9.70;99.90;;;;;;5060431;28;20048;-70
2022/11/24 02:33:04;;;;;;;22.98;3.58;;;9.60;99.90;;;;;;5059193;28;20025;-72
2022/11/24 02:35:31;;;;;;;15.73;3.13;;;9.60;99.90;;;;;;5059298;28;20408;-72
2022/11/24 02:37:56;;;;;;;19.40;3.25;;;9.60;99.90;;;;;;5059171;28;20021;-72
2022/11/24 02:40:26;;;;;;;18.77;3.10;;;9.60;99.90;;;;;;5059929;28;20037;-71
2022/11/24 02:43:04;;;;;;;18.52;2.78;;;9.60;99.90;;;;;;5058963;28;20102;-71
2022/11/24 02:45:30;;;;;;;14.90;3.35;;;9.60;99.90;;;;;;5059148;28;20033;-70
2022/11/24 02:47:56;;;;;;;19.95;4.10;;;9.70;99.90;;;;;;5042506;28;20029;-72
2022/11/24 02:50:22;;;;;;;18.75;3.88;;;9.70;99.90;;;;;;5059009;28;20036;-70
2022/11/24 02:52:48;;;;;;;19.42;3.47;;;9.70;99.90;;;;;;5058571;28;20028;-66
2022/11/24 02:55:14;;;;;;;18.23;3.13;;;9.70;99.90;;;;;;5058744;28;20036;-68
2022/11/24 02:57:40;;;;;;;11.98;2.28;;;9.50;99.90;;;;;;5058930;28;20400;-71
2022/11/24 03:00:06;;;;;;;18.55;2.58;;;9.30;99.90;;;;;;5059567;28;20075;-70
2022/11/24 03:02:32;;;;;;;18.80;2.70;;;9.20;99.90;;;;;;5058665;28;20040;-72
2022/11/24 03:04:58;;;;;;;13.45;2.58;;;9.00;99.90;;;;;;5059297;28;20045;-73
2022/11/24 03:07:24;;;;;;;19.67;3.13;;;9.00;99.90;;;;;;5042380;28;20036;-72
2022/11/24 03:09:50;;;;;;;11.07;2.17;;;8.90;99.90;;;;;;5058631;28;20068;-71
2022/11/24 03:12:15;;;;;;;9.93;1.90;;;8.90;99.90;;;;;;5042010;28;20041;-73
2022/11/24 03:14:41;;;;;;;12.43;2.03;;;8.90;99.90;;;;;;5058954;28;20347;-70
2022/11/24 03:17:07;;;;;;;16.63;1.75;;;8.90;99.90;;;;;;5041779;28;20102;-73
2022/11/24 03:19:33;;;;;;;5.85;1.58;;;8.90;99.90;;;;;;5025485;28;20179;-71
2022/11/24 03:21:59;;;;;;;7.22;1.33;;;8.90;99.90;;;;;;5042241;28;20388;-72
2022/11/24 03:24:24;;;;;;;6.75;1.27;;;8.90;99.90;;;;;;5058285;28;20409;-73
2022/11/24 03:26:50;;;;;;;4.93;0.88;;;8.90;99.90;;;;;;5042366;28;20032;-74
2022/11/24 03:29:16;;;;;;;5.20;0.80;;;8.90;99.90;;;;;;5041706;28;20297;-71
2022/11/24 03:31:42;;;;;;;4.50;0.70;;;8.90;99.90;;;;;;5058964;28;20033;-72
2022/11/24 03:34:08;;;;;;;2.75;0.52;;;8.90;99.90;;;;;;5041737;28;20301;-71
2022/11/24 03:36:34;;;;;;;3.75;0.50;;;8.80;99.90;;;;;;5058295;28;20036;-70
2022/11/24 03:39:00;;;;;;;2.05;0.50;;;8.80;99.90;;;;;;5058188;28;20076;-72
2022/11/24 03:41:25;;;;;;;1.83;0.60;;;8.80;99.90;;;;;;5058707;28;20404;-71
2022/11/24 03:43:51;;;;;;;2.88;0.60;;;8.80;99.90;;;;;;5041560;28;20104;-70
2022/11/24 03:46:17;;;;;;;3.55;0.60;;;8.80;99.90;;;;;;5024807;28;20093;-71
2022/11/24 03:48:43;;;;;;;3.88;0.65;;;8.70;99.90;;;;;;5041339;28;20037;-70
2022/11/24 03:51:09;;;;;;;3.60;0.90;;;8.70;99.90;;;;;;5057735;28;20404;-70
2022/11/24 03:53:35;;;;;;;3.13;0.70;;;8.70;99.90;;;;;;5057796;28;20029;-73
2022/11/24 03:56:02;;;;;;;4.75;0.80;;;8.60;99.90;;;;;;5041191;28;20040;-72
2022/11/24 03:58:29;;;;;;;6.57;1.00;;;8.50;99.90;;;;;;5058482;28;20325;-72
2022/11/24 04:00:55;;;;;;;4.10;0.80;;;8.60;99.90;;;;;;5024793;28;20397;-71
2022/11/24 04:03:21;;;;;;;7.70;0.95;;;8.60;99.90;;;;;;5057849;28;20044;-73
2022/11/24 04:05:47;;;;;;;4.97;0.85;;;8.60;99.90;;;;;;5057069;28;20047;-71
2022/11/24 04:08:13;;;;;;;5.32;0.98;;;8.50;99.90;;;;;;5058188;28;20029;-71
2022/11/24 04:10:40;;;;;;;3.47;0.80;;;8.50;99.90;;;;;;5040947;28;20091;-72
2022/11/24 04:13:14;;;;;;;5.30;0.95;;;8.50;99.90;;;;;;5058163;28;20045;-72
2022/11/24 04:15:41;;;;;;;4.43;1.00;;;8.50;99.90;;;;;;5058088;28;20029;-73
2022/11/24 04:18:08;;;;;;;3.95;0.80;;;8.40;99.90;;;;;;5057372;28;20037;-71
2022/11/24 04:20:34;;;;;;;5.97;1.02;;;8.30;99.90;;;;;;5058157;28;20079;-73
2022/11/24 04:23:00;;;;;;;4.65;0.98;;;8.30;99.90;;;;;;5057954;28;20032;-73
2022/11/24 04:25:27;;;;;;;5.47;1.23;;;8.30;99.90;;;;;;5057205;28;20098;-71
2022/11/24 04:27:54;;;;;;;4.82;1.20;;;8.30;99.90;;;;;;5057787;28;20028;-73
2022/11/24 04:30:21;;;;;;;7.13;1.02;;;8.30;99.90;;;;;;5057970;28;20028;-72
2022/11/24 04:32:47;;;;;;;4.78;1.00;;;8.30;99.90;;;;;;5057753;28;20044;-70
2022/11/24 04:35:14;;;;;;;6.32;1.02;;;8.30;99.90;;;;;;5057183;28;20041;-73
2022/11/24 04:37:39;;;;;;;7.07;1.00;;;8.40;99.90;;;;;;5057308;28;20037;-72
2022/11/24 04:40:07;;;;;;;5.32;1.00;;;8.40;99.90;;;;;;5057925;28;20120;-73
2022/11/24 04:42:32;;;;;;;4.00;1.13;;;8.30;99.90;;;;;;5040223;28;20297;-68
2022/11/24 04:44:58;;;;;;;2.85;0.80;;;8.40;99.90;;;;;;5056927;28;20029;-68
2022/11/24 04:47:25;;;;;;;7.88;1.17;;;8.40;99.90;;;;;;5056869;28;20036;-71
2022/11/24 04:49:51;;;;;;;7.75;0.77;;;8.30;99.90;;;;;;5056890;28;20032;-74
2022/11/24 04:52:19;;;;;;;6.15;0.75;;;8.30;99.90;;;;;;5057417;28;20377;-75
2022/11/24 04:54:45;;;;;;;4.97;0.90;;;8.40;99.90;;;;;;5057217;28;20033;-74
2022/11/24 04:57:16;;;;;;;5.47;0.80;;;8.40;99.90;;;;;;5057400;28;20094;-72
2022/11/24 04:59:42;;;;;;;4.95;1.20;;;8.50;99.90;;;;;;5057432;28;20032;-72
2022/11/24 05:02:08;;;;;;;2.60;0.95;;;8.60;99.90;;;;;;5057192;28;20033;-71
2022/11/24 05:04:34;;;;;;;3.97;1.00;;;8.70;99.90;;;;;;5057190;28;20055;-73
2022/11/24 05:07:00;;;;;;;3.13;0.80;;;8.60;99.90;;;;;;5039809;28;20033;-73
2022/11/24 05:09:26;;;;;;;4.65;1.02;;;8.70;99.90;;;;;;5057106;28;20029;-72
2022/11/24 05:11:51;;;;;;;5.78;0.80;;;8.60;99.90;;;;;;5024285;28;20116;-70
2022/11/24 05:14:17;;;;;;;6.25;0.93;;;8.60;99.90;;;;;;5057272;28;20033;-72
2022/11/24 05:16:43;;;;;;;4.60;0.57;;;8.60;99.90;;;;;;5056868;28;20033;-70
2022/11/24 05:19:09;;;;;;;4.70;0.63;;;8.60;99.90;;;;;;5040847;28;20414;-72
2022/11/24 05:21:35;;;;;;;4.13;0.70;;;8.60;99.90;;;;;;5056946;28;20029;-71
2022/11/24 05:24:01;;;;;;;3.45;0.50;;;8.50;99.90;;;;;;5039580;28;20048;-74
2022/11/24 05:26:27;;;;;;;2.03;0.52;;;8.50;99.90;;;;;;5057402;28;20029;-73
2022/11/24 05:28:53;;;;;;;5.88;1.23;;;8.40;99.90;;;;;;5056965;28;20033;-73
2022/11/24 05:31:19;;;;;;;4.07;0.80;;;8.40;99.90;;;;;;5057431;28;20086;-71
2022/11/24 05:33:44;;;;;;;6.88;0.95;;;8.40;99.90;;;;;;5023482;28;20033;-73
2022/11/24 05:38:55;;;;;;;6.38;0.90;;;8.50;99.90;;;;;;5058241;28;20126;-73
2022/11/24 05:41:20;;;;;;;3.10;0.77;;;8.40;99.90;;;;;;5039427;28;20061;-72
2022/11/24 05:43:46;;;;;;;3.80;0.75;;;8.40;99.90;;;;;;5057557;28;20404;-72
2022/11/24 05:46:12;;;;;;;2.80;0.70;;;8.60;99.90;;;;;;5057173;28;20108;-71
2022/11/24 05:48:38;;;;;;;5.95;1.25;;;8.60;99.90;;;;;;5056130;28;20037;-73
2022/11/24 05:51:03;;;;;;;2.92;0.63;;;8.50;99.90;;;;;;5056752;28;20029;-74
2022/11/24 05:53:29;;;;;;;3.05;0.95;;;8.50;99.90;;;;;;5056659;28;20033;-73
2022/11/24 05:55:55;;;;;;;4.88;0.95;;;8.50;99.90;;;;;;5056067;28;20032;-71
2022/11/24 05:58:21;;;;;;;5.00;0.73;;;8.40;99.90;;;;;;5056201;28;20048;-75
2022/11/24 06:00:46;;;;;;;5.07;1.02;;;8.40;99.90;;;;;;5023589;28;20029;-72
2022/11/24 06:03:12;;;;;;;4.25;0.82;;;8.40;99.90;;;;;;5039621;28;20045;-72
2022/11/24 06:05:38;;;;;;;4.82;0.93;;;8.30;99.90;;;;;;5039380;28;20049;-71
2022/11/24 06:08:04;;;;;;;4.75;0.80;;;8.20;99.90;;;;;;5039324;28;20086;-73
2022/11/24 06:10:30;;;;;;;4.85;0.80;;;8.20;99.90;;;;;;5056042;28;20029;-72
2022/11/24 06:12:56;;;;;;;6.13;1.00;;;8.20;99.90;;;;;;5055846;28;20047;-73
2022/11/24 06:15:22;;;;;;;5.43;0.95;;;8.10;99.90;;;;;;5039274;28;20033;-71
2022/11/24 06:17:55;;;;;;;6.25;1.20;;;8.10;99.90;;;;;;5055812;28;20033;-73
2022/11/24 06:20:22;;;;;;;9.23;1.42;;;8.00;99.90;;;;;;5056419;28;20118;-71
2022/11/24 06:22:48;;;;;;;7.00;1.80;;;8.00;99.90;;;;;;5056658;28;20033;-74
2022/11/24 06:25:15;;;;;;;5.07;0.90;;;8.10;99.90;;;;;;5056518;28;20458;-73
2022/11/24 06:27:41;;;;;;;4.80;0.90;;;8.10;99.90;;;;;;5057405;28;20409;-72
2022/11/24 06:30:07;;;;;;;4.85;1.17;;;8.10;99.90;;;;;;5059325;28;20045;-73
2022/11/24 06:32:33;;;;;;;7.78;1.30;;;8.10;99.90;;;;;;5059599;28;20029;-71
2022/11/24 06:34:59;;;;;;;6.07;1.10;;;8.00;99.90;;;;;;5042702;28;20458;-72
2022/11/24 06:37:25;;;;;;;8.05;1.30;;;8.00;99.90;;;;;;5042779;28;20051;-72
2022/11/24 06:39:51;;;;;;;6.93;1.30;;;7.90;99.90;;;;;;5042792;28;20127;-74
2022/11/24 06:42:17;;;;;;;5.78;1.25;;;8.00;99.90;;;;;;5058999;28;20483;-73
2022/11/24 06:44:47;;;;;;;9.68;1.77;;;8.00;99.90;;;;;;5059160;28;20274;-73
2022/11/24 06:47:14;;;;;;;7.22;1.40;;;8.00;99.90;;;;;;5059504;28;20037;-75
2022/11/24 06:49:40;;;;;;;12.48;1.67;;;8.10;99.90;;;;;;5059125;28;20029;-72
2022/11/24 06:52:06;;;;;;;7.25;1.55;;;8.00;99.90;;;;;;5026649;28;20033;-74
2022/11/24 06:54:32;;;;;;;8.20;1.50;;;8.00;99.90;;;;;;5059609;28;20037;-74
2022/11/24 06:56:59;;;;;;;7.00;1.45;;;7.90;99.90;;;;;;5059410;28;20048;-73
2022/11/24 06:59:25;;;;;;;9.32;1.50;;;7.90;99.90;;;;;;5060119;28;20033;-74
2022/11/24 07:01:51;;;;;;;6.68;1.50;;;7.80;99.90;;;;;;5059374;28;20098;-73
2022/11/24 07:04:18;;;;;;;4.53;1.10;;;7.80;99.90;;;;;;5058709;28;20301;-72
2022/11/24 07:06:44;;;;;;;4.88;1.10;;;7.80;99.90;;;;;;5058610;28;20300;-65
2022/11/24 07:09:11;;;;;;;9.63;1.55;;;7.80;99.90;;;;;;5059379;28;20116;-65
2022/11/24 07:11:38;;;;;;;10.30;1.70;;;7.80;99.90;;;;;;5058587;28;20044;-65
2022/11/24 07:14:04;;;;;;;9.52;1.60;;;7.80;99.90;;;;;;5059309;28;20025;-65
2022/11/24 07:16:30;;;;;;;8.95;1.40;;;7.80;99.90;;;;;;5041917;28;20048;-64
2022/11/24 07:18:57;;;;;;;5.90;1.10;;;7.70;99.90;;;;;;5059039;28;20044;-65
2022/11/24 07:21:24;;;;;;;5.75;1.30;;;7.80;99.90;;;;;;5058058;28;20044;-65
2022/11/24 07:23:51;;;;;;;10.10;1.77;;;7.80;99.90;;;;;;5058892;28;20032;-65
2022/11/24 07:26:18;;;;;;;7.15;1.55;;;7.70;99.90;;;;;;5058311;28;20057;-63
2022/11/24 07:28:44;;;;;;;7.10;1.25;;;7.70;99.90;;;;;;5059110;28;20033;-64
2022/11/24 07:31:13;;;;;;;6.82;1.70;;;8.10;99.90;;;;;;5058981;28;20021;-65
2022/11/24 07:33:39;;;;;;;8.70;1.60;;;7.90;99.90;;;;;;5058374;28;20332;-64
2022/11/24 07:36:06;;;;;;;6.93;1.30;;;7.90;99.90;;;;;;5058838;28;20025;-65
2022/11/24 07:38:33;;;;;;;6.88;1.75;;;7.80;99.90;;;;;;5057729;28;20075;-63
2022/11/24 07:41:03;;;;;;;8.60;1.73;;;7.70;99.90;;;;;;5057488;28;20079;-62
2022/11/24 07:43:34;;;;;;;11.93;1.80;;;7.70;99.90;;;;;;5041292;28;20040;-64
2022/11/24 07:46:00;;;;;;;9.35;2.22;;;7.70;99.90;;;;;;5041363;28;20124;-64
2022/11/24 07:48:26;;;;;;;5.65;2.22;;;7.70;99.90;;;;;;5041255;28;20025;-64
2022/11/24 07:50:52;;;;;;;15.07;2.53;;;7.70;99.90;;;;;;5058063;28;20044;-64
2022/11/24 07:53:18;;;;;;;9.93;2.20;;;7.70;99.90;;;;;;5041161;28;20033;-64
2022/11/24 07:55:51;;;;;;;18.27;2.22;;;7.70;99.90;;;;;;5057778;28;20044;-64
2022/11/24 07:58:17;;;;;;;15.25;2.78;;;7.70;99.90;;;;;;5042132;28;20060;-64
2022/11/24 08:00:43;;;;;;;12.98;2.15;;;7.70;99.90;;;;;;5057826;28;20064;-63
2022/11/24 08:03:08;;;;;;;13.98;2.47;;;7.70;99.90;;;;;;5040854;28;20103;-65
2022/11/24 08:05:35;;;;;;;17.75;2.88;;;7.70;99.90;;;;;;5040718;28;20045;-65
2022/11/24 08:08:01;;;;;;;15.60;2.65;;;7.70;99.90;;;;;;5008401;28;20029;-64
2022/11/24 08:10:26;;;;;;;13.05;2.70;;;7.80;99.90;;;;;;5057297;28;20045;-64
2022/11/24 08:12:52;;;;;;;13.18;2.22;;;7.80;99.90;;;;;;5040804;28;20021;-64
2022/11/24 08:15:18;;;;;;;19.50;3.17;;;7.80;99.90;;;;;;5057375;28;20032;-64
2022/11/24 08:17:44;;;;;;;14.38;2.58;;;7.90;99.90;;;;;;5057396;28;20104;-64
2022/11/24 08:20:10;;;;;;;9.25;3.17;;;7.90;99.90;;;;;;5058308;28;20039;-64
2022/11/24 08:22:35;;;;;;;11.30;2.25;;;7.90;99.90;;;;;;5057518;28;20079;-66
2022/11/24 08:25:01;;;;;;;15.43;2.42;;;7.90;99.90;;;;;;5057116;28;20420;-65
2022/11/24 08:27:28;;;;;;;13.00;2.15;;;7.90;99.90;;;;;;5040478;28;20033;-65
2022/11/24 08:29:54;;;;;;;15.75;2.30;;;8.00;99.90;;;;;;5040388;28;20021;-65
2022/11/24 08:32:20;;;;;;;11.75;2.22;;;8.00;99.90;;;;;;5023729;28;20025;-65
2022/11/24 08:34:46;;;;;;;8.93;2.42;;;8.10;99.90;;;;;;5056746;28;20040;-66
2022/11/24 08:37:12;;;;;;;11.13;2.60;;;8.10;99.90;;;;;;5023874;28;20021;-63
2022/11/24 08:39:37;;;;;;;11.68;3.03;;;8.10;99.90;;;;;;5057649;28;20098;-63
2022/11/24 08:42:03;;;;;;;14.60;2.92;;;8.20;99.90;;;;;;5056752;28;20308;-63
2022/11/24 08:44:29;;;;;;;10.52;2.40;;;8.20;99.90;;;;;;5056890;28;20025;-64
2022/11/24 08:46:55;;;;;;;10.88;2.25;;;8.20;99.90;;;;;;5040258;28;20036;-65
2022/11/24 08:49:21;;;;;;;9.48;2.20;;;8.30;99.90;;;;;;5056760;28;20025;-65
2022/11/24 08:51:48;;;;;;;17.70;2.58;;;8.30;99.90;;;;;;5056541;28;20040;-65
2022/11/24 08:54:17;;;;;;;3.83;1.40;;;8.30;99.90;;;;;;5040319;28;20305;-64
2022/11/24 08:56:43;;;;;;;11.98;2.33;;;8.40;99.90;;;;;;5056502;28;20029;-64
2022/11/24 08:59:13;;;;;;;6.10;1.63;;;8.40;99.90;;;;;;5057113;28;20348;-65
2022/11/24 09:01:40;;;;;;;11.43;1.92;;;8.50;99.90;;;;;;5056341;28;20281;-65
2022/11/24 09:04:06;;;;;;;8.38;1.58;;;8.50;99.90;;;;;;5057494;28;20124;-66
2022/11/24 09:06:32;;;;;;;8.20;1.30;;;8.50;99.90;;;;;;5023568;28;20113;-64
2022/11/24 09:08:58;;;;;;;7.72;2.08;;;8.60;99.90;;;;;;5056239;28;20048;-64
2022/11/24 09:11:26;;;;;;;8.85;1.60;;;8.70;99.90;;;;;;5056414;28;20123;-63
2022/11/24 09:13:53;;;;;;;7.13;1.67;;;8.70;99.90;;;;;;5057090;28;20053;-64
2022/11/24 09:16:22;;;;;;;6.68;1.45;;;8.80;99.90;;;;;;5057044;28;20095;-65
2022/11/24 09:19:03;;;;;;;8.85;1.40;;;8.80;99.90;;;;;;5056253;28;20032;-64
2022/11/24 09:21:32;;;;;;;8.85;1.85;;;8.70;99.90;;;;;;5056166;28;20036;-62
2022/11/24 09:23:58;;;;;;;7.18;1.88;;;8.80;99.90;;;;;;5056176;28;20021;-62
2022/11/24 09:26:32;;;;;;;8.98;1.98;;;8.90;99.90;;;;;;5039648;28;20090;-63
2022/11/24 09:28:59;;;;;;;12.45;2.08;;;9.00;99.90;;;;;;5056887;28;20025;-63
2022/11/24 09:31:29;;;;;;;9.75;2.17;;;9.10;99.90;;;;;;5056146;28;20025;-63
2022/11/24 09:33:55;;;;;;;12.13;2.25;;;9.20;99.90;;;;;;5039405;28;20073;-61
2022/11/24 09:36:22;;;;;;;9.98;2.03;;;9.30;99.90;;;;;;5056663;28;20025;-61
2022/11/24 09:38:48;;;;;;;12.02;2.08;;;9.30;99.90;;;;;;5039663;28;20057;-65
2022/11/24 09:41:21;;;;;;;10.45;2.22;;;9.30;99.90;;;;;;5006697;28;20064;-62
2022/11/24 09:44:32;;;;;;;10.95;1.90;;;9.40;99.90;;;;;;5056183;28;20029;-62
2022/11/24 09:47:32;;;;;;;10.65;1.77;;;9.60;99.90;;;;;;5039391;28;20040;-63
2022/11/24 09:50:05;;;;;;;12.00;1.90;;;9.80;99.90;;;;;;5056679;28;20022;-62
2022/11/24 09:52:38;;;;;;;6.28;1.80;;;10.00;99.90;;;;;;5056858;28;20044;-64
2022/11/24 09:55:14;;;;;;;9.38;1.67;;;10.00;99.90;;;;;;5055814;28;20036;-63
2022/11/24 09:57:42;;;;;;;9.48;1.88;;;10.10;99.90;;;;;;5056756;28;20025;-64
2022/11/24 10:00:13;;;;;;;9.10;2.00;;;10.20;99.90;;;;;;5056610;28;20426;-64
2022/11/24 10:02:39;;;;;;;7.05;1.70;;;10.20;99.90;;;;;;5056810;28;20033;-63
2022/11/24 10:05:05;;;;;;;6.00;1.23;;;10.40;99.90;;;;;;5042964;28;20056;-62
2022/11/24 10:07:48;;;;;;;5.15;1.30;;;10.50;99.90;;;;;;5059748;28;20029;-62
2022/11/24 10:10:23;;;;;;;7.82;1.52;;;10.80;99.90;;;;;;5060879;28;20029;-61
2022/11/24 10:13:27;;;;;;;9.20;1.73;;;10.70;99.90;;;;;;5060402;28;20036;-63
2022/11/24 10:16:18;;;;;;;7.03;1.90;;;10.90;99.90;;;;;;5059565;28;20039;-61
2022/11/24 10:19:26;;;;;;;6.93;1.55;;;11.30;99.90;;;;;;5060298;28;20028;-62
2022/11/24 10:22:19;;;;;;;8.07;1.70;;;11.30;99.90;;;;;;5049934;28;20049;-61
2022/11/24 10:24:56;;;;;;;10.27;2.40;;;11.50;99.90;;;;;;5059400;28;20051;-60
2022/11/24 10:27:36;;;;;;;10.50;1.55;;;11.30;99.90;;;;;;5060151;28;20307;-61
2022/11/24 10:30:21;;;;;;;8.57;1.90;;;11.40;99.90;;;;;;5059427;28;20029;-62
2022/11/24 10:32:56;;;;;;;12.70;2.03;;;11.60;99.90;;;;;;5060679;28;20041;-62
2022/11/24 10:35:29;;;;;;;8.70;1.70;;;12.10;99.90;;;;;;5060060;28;20029;-62
2022/11/24 10:38:36;;;;;;;10.45;2.05;;;12.00;99.90;;;;;;5060276;28;20025;-61
2022/11/24 10:41:11;;;;;;;6.03;1.45;;;12.00;99.90;;;;;;5059627;28;20041;-62
2022/11/24 10:43:40;;;;;;;11.48;2.13;;;12.40;99.90;;;;;;5042334;28;20025;-61
2022/11/24 10:46:14;;;;;;;11.32;2.03;;;12.40;99.90;;;;;;5059052;28;20036;-62
2022/11/24 10:48:45;;;;;;;7.97;1.80;;;12.20;99.90;;;;;;5059040;28;20033;-62
2022/11/24 10:51:42;;;;;;;10.23;1.85;;;12.60;99.90;;;;;;5060065;28;20143;-61
2022/11/24 10:54:16;;;;;;;11.10;1.70;;;13.00;99.90;;;;;;5059087;28;20036;-63
2022/11/24 10:56:45;;;;;;;11.80;2.05;;;13.00;99.90;;;;;;5058941;28;20025;-61
2022/11/24 10:59:24;;;;;;;11.00;2.05;;;13.10;99.90;;;;;;5059575;28;20021;-61
2022/11/24 11:01:53;;;;;;;7.72;2.22;;;12.90;99.90;;;;;;5059265;28;20033;-62
2022/11/24 11:04:31;;;;;;;6.90;1.77;;;12.70;99.90;;;;;;5059151;28;20079;-61
2022/11/24 11:07:17;;;;;;;11.30;2.00;;;12.50;99.90;;;;;;5058682;28;20039;-63
2022/11/24 11:09:44;;;;;;;12.13;2.03;;;12.20;99.90;;;;;;5042079;28;20024;-60
2022/11/24 11:12:20;;;;;;;12.70;2.40;;;12.30;99.90;;;;;;5025652;28;20041;-62
2022/11/24 11:14:47;;;;;;;11.45;2.08;;;12.10;99.90;;;;;;5058234;28;20025;-63
2022/11/24 11:17:35;;;;;;;14.52;2.35;;;12.20;99.90;;;;;;5058640;28;20040;-61
2022/11/24 11:20:20;;;;;;;11.15;1.88;;;12.10;99.90;;;;;;5058491;28;20048;-62
2022/11/24 11:22:47;;;;;;;14.23;2.08;;;12.10;99.90;;;;;;5058375;28;20397;-63
2022/11/24 11:25:19;;;;;;;10.13;1.85;;;12.00;99.90;;;;;;5058385;28;20393;-62
2022/11/24 11:27:45;;;;;;;11.32;2.33;;;11.90;99.90;;;;;;5058381;28;20032;-62
2022/11/24 11:30:19;;;;;;;9.75;2.13;;;12.00;99.90;;;;;;5059054;28;20296;-61
2022/11/24 11:33:20;;;;;;;15.50;2.53;;;12.10;99.90;;;;;;5041516;28;20170;-62
2022/11/24 11:35:46;;;;;;;10.73;2.10;;;12.10;99.90;;;;;;5059297;28;20029;-62
2022/11/24 11:38:12;;;;;;;11.90;2.05;;;12.10;99.90;;;;;;5058839;28;20300;-64
2022/11/24 11:40:41;;;;;;;10.25;1.65;;;12.10;99.90;;;;;;5041678;28;20293;-60
2022/11/24 11:43:49;;;;;;;16.65;2.83;;;12.10;99.90;;;;;;5058230;28;20035;-61
2022/11/24 11:46:15;;;;;;;10.98;2.00;;;12.10;99.90;;;;;;5020883;28;20026;-61
2022/11/24 11:48:45;;;;;;;9.70;2.47;;;12.00;99.90;;;;;;5037351;28;20069;-60
2022/11/24 11:51:39;;;;;;;12.40;2.38;;;12.10;99.90;;;;;;5048347;28;20041;-63
2022/11/24 11:54:17;;;;;;;11.35;2.58;;;12.00;99.90;;;;;;5058851;28;20045;-66
2022/11/24 11:56:46;;;;;;;11.90;2.00;;;12.10;99.90;;;;;;5058385;28;20075;-65
2022/11/24 11:59:24;;;;;;;12.90;2.00;;;12.20;99.90;;;;;;5057628;28;20300;-64
2022/11/24 12:02:27;;;;;;;9.00;2.17;;;12.30;99.90;;;;;;5040856;28;20344;-65
2022/11/24 12:05:00;;;;;;;15.48;2.20;;;12.30;99.90;;;;;;5040703;28;20052;-61
2022/11/24 12:07:35;;;;;;;9.90;2.03;;;12.30;99.90;;;;;;5058532;28;20033;-63
2022/11/24 12:10:31;;;;;;;14.25;2.38;;;12.30;99.90;;;;;;5057465;28;20025;-64
2022/11/24 12:13:28;;;;;;;10.93;2.20;;;12.30;99.90;;;;;;5057368;28;20040;-62
2022/11/24 12:15:57;;;;;;;10.10;2.28;;;12.30;99.90;;;;;;5057393;28;20036;-63
2022/11/24 12:18:45;;;;;;;15.13;2.13;;;12.30;99.90;;;;;;5058022;28;20040;-63
2022/11/24 12:21:19;;;;;;;13.25;2.35;;;12.20;99.90;;;;;;5057309;28;20033;-65
2022/11/24 12:23:57;;;;;;;10.88;1.70;;;12.30;99.90;;;;;;5057222;28;20111;-64
2022/11/24 12:26:53;;;;;;;10.70;2.28;;;12.30;99.90;;;;;;5056702;28;20120;-64
2022/11/24 12:29:47;;;;;;;14.77;3.10;;;12.40;99.90;;;;;;5058016;28;20116;-63
2022/11/24 12:32:59;;;;;;;11.15;2.58;;;12.40;99.90;;;;;;5040488;28;20089;-61
2022/11/24 12:35:36;;;;;;;11.68;2.00;;;12.20;99.90;;;;;;5040070;28;20041;-64
2022/11/24 12:38:26;;;;;;;8.10;1.55;;;12.20;99.90;;;;;;5057171;28;20040;-64
2022/11/24 12:41:07;;;;;;;13.85;2.20;;;12.10;99.90;;;;;;5057719;28;20040;-63
2022/11/24 12:43:39;;;;;;;16.00;2.08;;;12.10;99.90;;;;;;5056635;28;20114;-60
2022/11/24 12:46:17;;;;;;;8.63;1.90;;;12.10;99.90;;;;;;5056649;28;20033;-63
2022/11/24 12:49:10;;;;;;;8.48;1.63;;;12.10;99.90;;;;;;5057524;28;20039;-67
2022/11/24 12:51:41;;;;;;;12.55;2.75;;;12.30;99.90;;;;;;5056685;28;20025;-64
2022/11/24 12:54:12;;;;;;;11.25;2.00;;;12.40;99.90;;;;;;5057460;28;20268;-63
2022/11/24 12:57:17;;;;;;;8.43;2.13;;;12.40;99.90;;;;;;5057563;28;20088;-62
2022/11/24 13:00:06;;;;;;;14.60;2.40;;;12.40;99.90;;;;;;5057446;28;20021;-62
2022/11/24 13:02:41;;;;;;;7.95;1.73;;;12.30;99.90;;;;;;5057056;28;20083;-64
2022/11/24 13:05:20;;;;;;;12.60;3.03;;;12.40;99.90;;;;;;5057024;28;20045;-64
2022/11/24 13:07:56;;;;;;;8.82;1.90;;;12.40;99.90;;;;;;5056413;28;20104;-62
2022/11/24 13:10:35;;;;;;;12.23;2.03;;;12.40;99.90;;;;;;5056393;28;20336;-64